createdAt,value
2023-11-30T00:01:46.619Z,11.53
2023-11-30T00:04:13.355Z,11.00
2023-11-30T00:06:40.459Z,10.67
2023-11-30T00:09:07.033Z,10.07
2023-11-30T00:11:33.536Z,9.40
2023-11-30T00:14:00.082Z,10.73
2023-11-30T00:16:26.644Z,9.37
2023-11-30T00:18:53.213Z,10.37
2023-11-30T00:21:19.861Z,10.03
2023-11-30T00:23:46.459Z,11.33
2023-11-30T00:26:14.433Z,10.27
2023-11-30T00:28:41.042Z,11.30
2023-11-30T00:31:07.712Z,11.80
2023-11-30T00:33:34.612Z,12.67
2023-11-30T00:36:01.169Z,12.10
2023-11-30T00:38:27.693Z,12.33
2023-11-30T00:40:54.203Z,13.47
2023-11-30T00:43:20.830Z,13.43
2023-11-30T00:45:52.713Z,13.27
2023-11-30T00:48:24.837Z,14.83
2023-11-30T00:50:51.957Z,13.93
2023-11-30T00:53:18.516Z,15.63
2023-11-30T00:55:45.034Z,14.70
2023-11-30T00:58:11.571Z,13.77
2023-11-30T01:00:38.137Z,13.53
2023-11-30T01:03:04.717Z,12.63
2023-11-30T01:05:31.244Z,12.00
2023-11-30T01:07:57.730Z,12.60
2023-11-30T01:10:24.262Z,10.90
2023-11-30T01:12:50.744Z,12.63
2023-11-30T01:15:17.358Z,12.00
2023-11-30T01:17:44.077Z,10.40
2023-11-30T01:20:11.998Z,10.63
2023-11-30T01:22:38.514Z,10.43
2023-11-30T01:25:05.240Z,11.10
2023-11-30T01:27:31.875Z,11.03
2023-11-30T01:29:58.409Z,10.67
2023-11-30T01:32:24.946Z,11.97
2023-11-30T01:34:51.471Z,10.50
2023-11-30T01:37:17.971Z,10.30
2023-11-30T01:39:44.714Z,10.23
2023-11-30T01:42:11.277Z,10.70
2023-11-30T01:44:37.894Z,11.00
2023-11-30T01:47:05.502Z,10.33
2023-11-30T01:49:32.119Z,11.03
2023-11-30T01:51:58.936Z,11.40
2023-11-30T01:54:25.502Z,10.77
2023-11-30T01:56:52.103Z,11.40
2023-11-30T01:59:18.659Z,11.27
2023-11-30T02:01:48.188Z,12.37
2023-11-30T02:04:16.406Z,10.83
2023-11-30T02:06:46.395Z,11.57
2023-11-30T02:09:13.391Z,10.67
2023-11-30T02:11:40.157Z,11.90
2023-11-30T02:14:06.800Z,10.90
2023-11-30T02:16:33.432Z,11.73
2023-11-30T02:19:00.219Z,11.60
2023-11-30T02:21:26.825Z,11.07
2023-11-30T02:23:53.451Z,11.53
2023-11-30T02:26:20.012Z,11.53
2023-11-30T02:28:46.558Z,10.43
2023-11-30T02:31:13.127Z,11.13
2023-11-30T02:33:39.718Z,11.50
2023-11-30T02:36:06.608Z,12.63
2023-11-30T02:38:33.122Z,11.87
2023-11-30T02:40:59.836Z,11.50
2023-11-30T02:43:29.392Z,12.23
2023-11-30T02:45:55.976Z,11.77
2023-11-30T02:48:22.598Z,12.53
2023-11-30T02:50:49.195Z,11.50
2023-11-30T02:53:15.735Z,11.93
2023-11-30T02:55:42.254Z,11.37
2023-11-30T02:58:08.722Z,11.67
2023-11-30T03:00:35.293Z,10.83
2023-11-30T03:03:02.479Z,11.67
2023-11-30T03:05:29.027Z,12.10
2023-11-30T03:07:55.543Z,11.20
2023-11-30T03:10:24.327Z,10.70
2023-11-30T03:12:51.169Z,11.53
2023-11-30T03:15:19.698Z,10.73
2023-11-30T03:17:46.393Z,10.13
2023-11-30T03:20:12.970Z,9.50
2023-11-30T03:22:39.513Z,10.00
2023-11-30T03:25:06.691Z,9.97
2023-11-30T03:27:33.299Z,9.97
2023-11-30T03:29:59.894Z,10.00
2023-11-30T03:32:26.466Z,10.77
2023-11-30T03:34:53.028Z,10.33
2023-11-30T03:37:19.595Z,10.20
2023-11-30T03:39:46.148Z,10.03
2023-11-30T03:42:13.066Z,10.20
2023-11-30T03:44:39.684Z,10.77
2023-11-30T03:47:06.205Z,9.90
2023-11-30T03:49:32.730Z,10.37
2023-11-30T03:51:59.266Z,10.03
2023-11-30T03:54:25.902Z,10.20
2023-11-30T03:56:52.627Z,10.50
2023-11-30T03:59:19.154Z,10.63
2023-11-30T04:01:45.835Z,10.93
2023-11-30T04:04:12.468Z,10.47
2023-11-30T04:06:39.152Z,11.03
2023-11-30T04:09:05.829Z,10.87
2023-11-30T04:11:32.349Z,11.13
2023-11-30T04:14:06.505Z,12.23
2023-11-30T04:16:33.600Z,11.43
2023-11-30T04:19:00.148Z,11.10
2023-11-30T04:21:26.738Z,10.47
2023-11-30T04:23:53.266Z,10.77
2023-11-30T04:26:19.948Z,10.77
2023-11-30T04:28:46.534Z,10.57
2023-11-30T04:31:13.390Z,11.67
2023-11-30T04:33:40.018Z,11.73
2023-11-30T04:36:06.959Z,11.13
2023-11-30T04:38:33.512Z,11.10
2023-11-30T04:41:00.038Z,11.30
2023-11-30T04:43:26.965Z,10.90
2023-11-30T04:45:53.558Z,11.90
2023-11-30T04:48:20.137Z,11.33
2023-11-30T04:50:46.685Z,10.80
2023-11-30T04:53:13.184Z,11.43
2023-11-30T04:55:39.981Z,10.87
2023-11-30T04:58:06.482Z,10.10
2023-11-30T05:00:33.063Z,10.87
2023-11-30T05:02:59.920Z,11.00
2023-11-30T05:05:26.641Z,10.90
2023-11-30T05:07:53.186Z,10.10
2023-11-30T05:10:19.791Z,10.90
2023-11-30T05:12:47.234Z,10.23
2023-11-30T05:15:13.735Z,9.80
2023-11-30T05:17:40.342Z,11.13
2023-11-30T05:20:07.364Z,10.93
2023-11-30T05:22:33.892Z,9.23
2023-11-30T05:25:00.447Z,11.37
2023-11-30T05:27:27.301Z,10.50
2023-11-30T05:29:53.803Z,11.57
2023-11-30T05:32:20.372Z,11.60
2023-11-30T05:34:46.908Z,11.03
2023-11-30T05:37:13.645Z,11.00
2023-11-30T05:39:40.537Z,11.63
2023-11-30T05:42:07.150Z,11.27
2023-11-30T05:44:33.866Z,11.40
2023-11-30T05:47:00.524Z,11.93
2023-11-30T05:49:27.385Z,11.83
2023-11-30T05:51:53.963Z,12.80
2023-11-30T05:54:20.862Z,14.40
2023-11-30T05:56:47.633Z,12.97
2023-11-30T05:59:14.798Z,13.17
2023-11-30T06:01:41.574Z,14.70
2023-11-30T06:04:08.352Z,15.33
2023-11-30T06:06:35.042Z,14.80
2023-11-30T06:09:01.657Z,13.87
2023-11-30T06:11:28.350Z,14.20
2023-11-30T06:13:54.939Z,14.07
2023-11-30T06:16:21.606Z,14.43
2023-11-30T06:18:48.420Z,16.33
2023-11-30T06:21:14.920Z,17.13
2023-11-30T06:23:41.593Z,17.97
2023-11-30T06:26:08.326Z,17.43
2023-11-30T06:28:34.931Z,18.70
2023-11-30T06:31:01.611Z,18.60
2023-11-30T06:33:28.232Z,18.93
2023-11-30T06:35:54.854Z,19.27
2023-11-30T06:38:21.370Z,19.40
2023-11-30T06:40:50.190Z,19.27
2023-11-30T06:43:16.864Z,18.20
2023-11-30T06:45:43.551Z,17.30
2023-11-30T06:48:10.317Z,17.63
2023-11-30T06:50:36.871Z,18.83
2023-11-30T06:53:03.425Z,16.60
2023-11-30T06:55:29.913Z,19.17
2023-11-30T06:57:56.614Z,17.23
2023-11-30T07:00:23.242Z,18.17
2023-11-30T07:02:49.884Z,17.50
2023-11-30T07:05:16.424Z,16.17
2023-11-30T07:07:43.046Z,16.43
2023-11-30T07:10:11.296Z,17.30
2023-11-30T07:12:37.977Z,19.20
2023-11-30T07:15:05.228Z,18.27
2023-11-30T07:17:31.843Z,17.77
2023-11-30T07:19:58.397Z,16.47
2023-11-30T07:22:26.292Z,17.27
2023-11-30T07:24:53.411Z,18.13
2023-11-30T07:27:20.224Z,17.03
2023-11-30T07:29:47.051Z,17.03
2023-11-30T07:32:17.051Z,17.50
2023-11-30T07:34:43.955Z,17.03
2023-11-30T07:37:10.571Z,17.70
2023-11-30T07:39:37.996Z,18.20
2023-11-30T07:42:07.583Z,19.63
2023-11-30T07:44:34.247Z,19.47
2023-11-30T07:47:01.177Z,19.67
2023-11-30T07:49:27.742Z,19.37
2023-11-30T07:51:54.336Z,19.90
2023-11-30T07:54:21.034Z,20.47
2023-11-30T07:56:47.620Z,19.40
2023-11-30T07:59:14.280Z,21.07
2023-11-30T08:01:41.395Z,19.37
2023-11-30T08:04:08.786Z,19.40
2023-11-30T08:06:35.562Z,20.63
2023-11-30T08:09:02.267Z,19.13
2023-11-30T08:11:29.982Z,21.83
2023-11-30T08:13:56.797Z,21.77
2023-11-30T08:16:23.500Z,20.80
2023-11-30T08:18:50.099Z,22.80
2023-11-30T08:21:17.065Z,24.27
2023-11-30T08:23:45.098Z,26.23
2023-11-30T08:26:13.078Z,27.77
2023-11-30T08:28:39.656Z,24.53
2023-11-30T08:31:07.164Z,24.50
2023-11-30T08:33:34.301Z,25.77
2023-11-30T08:36:01.786Z,25.30
2023-11-30T08:38:28.697Z,24.90
2023-11-30T08:40:55.434Z,23.03
2023-11-30T08:43:22.050Z,24.43
2023-11-30T08:45:48.646Z,22.83
2023-11-30T08:48:15.873Z,21.83
2023-11-30T08:50:42.491Z,20.83
2023-11-30T08:53:09.014Z,20.10
2023-11-30T08:55:35.906Z,18.73
2023-11-30T08:58:02.489Z,18.20
2023-11-30T09:00:29.105Z,18.90
2023-11-30T09:02:57.629Z,17.90
2023-11-30T09:05:24.995Z,18.03
2023-11-30T09:07:54.539Z,17.23
2023-11-30T09:10:21.152Z,15.67
2023-11-30T09:12:47.734Z,13.40
2023-11-30T09:15:14.507Z,10.67
2023-11-30T09:17:41.439Z,10.07
2023-11-30T09:20:09.670Z,9.23
2023-11-30T09:22:36.497Z,10.20
2023-11-30T09:25:04.287Z,8.57
2023-11-30T09:27:30.941Z,8.83
2023-11-30T09:29:57.602Z,8.73
2023-11-30T09:32:24.122Z,9.67
2023-11-30T09:34:50.679Z,9.90
2023-11-30T09:37:17.213Z,8.50
2023-11-30T09:39:45.804Z,8.10
2023-11-30T09:42:17.549Z,9.57
2023-11-30T09:44:44.579Z,8.87
2023-11-30T09:47:11.980Z,10.13
2023-11-30T09:49:39.023Z,9.40
2023-11-30T09:52:05.917Z,10.50
2023-11-30T09:54:33.011Z,10.27
2023-11-30T09:56:59.597Z,10.10
2023-11-30T09:59:27.454Z,10.13
2023-11-30T10:01:57.010Z,9.70
2023-11-30T10:04:25.270Z,9.30
2023-11-30T10:06:54.061Z,9.70
2023-11-30T10:09:20.653Z,9.30
2023-11-30T10:11:47.244Z,8.10
2023-11-30T10:14:13.892Z,8.10
2023-11-30T10:16:40.586Z,7.40
2023-11-30T10:19:08.570Z,8.00
2023-11-30T10:21:36.158Z,7.40
2023-11-30T10:24:03.423Z,8.87
2023-11-30T10:26:30.460Z,8.53
2023-11-30T10:28:56.992Z,9.13
2023-11-30T10:31:24.135Z,8.60
2023-11-30T10:33:54.683Z,9.97
2023-11-30T10:36:21.387Z,9.27
2023-11-30T10:38:48.547Z,8.70
2023-11-30T10:41:17.702Z,10.03
2023-11-30T10:43:46.722Z,10.87
2023-11-30T10:46:14.490Z,11.00
2023-11-30T10:48:41.278Z,10.70
2023-11-30T10:51:08.529Z,10.80
2023-11-30T10:53:53.566Z,9.77
2023-11-30T10:56:20.766Z,10.30
2023-11-30T10:58:48.293Z,9.17
2023-11-30T11:01:18.555Z,9.63
2023-11-30T11:03:46.061Z,8.83
2023-11-30T11:06:12.676Z,9.33
2023-11-30T11:08:39.259Z,9.23
2023-11-30T11:11:06.311Z,8.77
2023-11-30T11:13:35.815Z,10.00
2023-11-30T11:16:04.166Z,8.37
2023-11-30T11:18:32.276Z,8.93
2023-11-30T11:20:59.417Z,8.93
2023-11-30T11:23:35.723Z,8.23
2023-11-30T11:26:03.536Z,6.73
2023-11-30T11:28:30.187Z,6.93
2023-11-30T11:30:56.867Z,7.87
2023-11-30T11:33:24.588Z,7.73
2023-11-30T11:35:51.332Z,8.93
2023-11-30T11:38:19.923Z,8.43
2023-11-30T11:40:46.523Z,7.57
2023-11-30T11:43:13.091Z,8.67
2023-11-30T11:45:41.306Z,8.30
2023-11-30T11:48:11.904Z,9.33
2023-11-30T11:50:38.991Z,8.13
2023-11-30T11:53:05.637Z,8.10
2023-11-30T11:55:32.309Z,8.50
2023-11-30T11:57:59.069Z,8.97
2023-11-30T12:00:27.072Z,8.57
2023-11-30T12:03:04.247Z,7.63
2023-11-30T12:05:30.992Z,8.00
2023-11-30T12:07:57.890Z,7.97
2023-11-30T12:10:30.759Z,8.20
2023-11-30T12:12:57.885Z,8.27
2023-11-30T12:15:24.696Z,8.77
2023-11-30T12:17:51.557Z,8.53
2023-11-30T12:20:21.688Z,7.97
2023-11-30T12:22:48.574Z,8.10
2023-11-30T12:25:15.146Z,7.80
2023-11-30T12:27:41.844Z,8.37
2023-11-30T12:30:09.979Z,9.30
2023-11-30T12:32:38.931Z,8.10
2023-11-30T12:35:05.942Z,9.60
2023-11-30T12:37:32.999Z,7.53
2023-11-30T12:39:59.894Z,8.53
2023-11-30T12:42:27.891Z,9.57
2023-11-30T12:44:54.618Z,8.93
2023-11-30T12:47:21.819Z,10.00
2023-11-30T12:49:51.507Z,9.00
2023-11-30T12:52:18.112Z,8.60
2023-11-30T12:54:47.617Z,9.47
2023-11-30T12:57:14.209Z,8.83
2023-11-30T12:59:41.502Z,8.57
2023-11-30T13:02:08.193Z,9.70
2023-11-30T13:04:38.176Z,8.60
2023-11-30T13:07:04.884Z,8.53
2023-11-30T13:09:33.722Z,8.60
2023-11-30T13:12:00.807Z,8.17
2023-11-30T13:14:27.411Z,8.50
2023-11-30T13:16:54.516Z,9.47
2023-11-30T13:19:24.640Z,8.87
2023-11-30T13:21:52.286Z,8.70
2023-11-30T13:24:19.277Z,8.43
2023-11-30T13:26:46.893Z,9.20
2023-11-30T13:29:13.453Z,8.97
2023-11-30T13:31:40.047Z,7.93
2023-11-30T13:34:06.629Z,8.80
2023-11-30T13:36:33.222Z,8.30
2023-11-30T13:39:01.667Z,9.93
2023-11-30T13:41:28.339Z,10.67
2023-11-30T13:43:55.261Z,10.20
2023-11-30T13:46:22.496Z,9.80
2023-11-30T13:48:49.266Z,10.13
2023-11-30T13:51:16.118Z,9.20
2023-11-30T13:53:42.878Z,9.73
2023-11-30T13:56:10.001Z,10.30
2023-11-30T13:58:36.720Z,9.97
2023-11-30T14:01:04.321Z,10.20
2023-11-30T14:03:31.036Z,9.70
2023-11-30T14:05:58.456Z,9.67
2023-11-30T14:08:27.684Z,8.77
2023-11-30T14:10:54.366Z,9.50
2023-11-30T14:13:21.069Z,9.67
2023-11-30T14:15:49.084Z,8.60
2023-11-30T14:18:15.896Z,9.13
2023-11-30T14:20:42.578Z,9.83
2023-11-30T14:23:09.187Z,9.87
2023-11-30T14:25:35.860Z,8.67
2023-11-30T14:28:07.683Z,9.60
2023-11-30T14:30:38.512Z,10.00
2023-11-30T14:33:05.492Z,10.07
2023-11-30T14:35:33.227Z,9.60
2023-11-30T14:38:00.326Z,10.23
2023-11-30T14:40:27.465Z,11.73
2023-11-30T14:42:54.242Z,11.70
2023-11-30T14:45:20.947Z,12.23
2023-11-30T14:47:49.149Z,12.17
2023-11-30T14:50:17.059Z,14.17
2023-11-30T14:52:46.197Z,14.70
2023-11-30T14:55:13.578Z,14.03
2023-11-30T14:57:43.342Z,13.87
2023-11-30T15:00:13.663Z,13.57
2023-11-30T15:02:42.874Z,14.13
2023-11-30T15:05:11.687Z,13.07
2023-11-30T15:07:39.092Z,14.10
2023-11-30T15:10:06.000Z,14.30
2023-11-30T15:12:32.809Z,15.07
2023-11-30T15:14:59.561Z,14.37
2023-11-30T15:17:26.125Z,14.43
2023-11-30T15:19:54.628Z,13.77
2023-11-30T15:22:21.517Z,14.77
2023-11-30T15:24:48.261Z,14.83
2023-11-30T15:27:15.187Z,15.83
2023-11-30T15:29:41.852Z,16.77
2023-11-30T15:32:08.457Z,20.30
2023-11-30T15:34:35.556Z,17.83
2023-11-30T15:37:04.799Z,17.53
2023-11-30T15:39:31.925Z,19.97
2023-11-30T15:41:58.603Z,23.50
2023-11-30T15:44:25.158Z,32.73
2023-11-30T15:46:51.723Z,30.97
2023-11-30T15:49:18.411Z,28.77
2023-11-30T15:51:45.374Z,30.07
2023-11-30T15:54:11.973Z,27.93
2023-11-30T15:56:38.577Z,26.63
2023-11-30T15:59:05.522Z,27.80
2023-11-30T16:01:32.749Z,24.23
2023-11-30T16:03:59.755Z,31.47
2023-11-30T16:06:26.548Z,39.20
2023-11-30T16:08:54.066Z,50.83
2023-11-30T16:11:20.606Z,39.23
2023-11-30T16:13:47.178Z,36.53
2023-11-30T16:16:13.866Z,34.70
2023-11-30T16:18:43.217Z,37.83
2023-11-30T16:21:23.415Z,39.97
2023-11-30T16:23:50.813Z,39.57
2023-11-30T16:26:21.062Z,34.43
2023-11-30T16:28:48.099Z,34.43
2023-11-30T16:31:14.811Z,36.97
2023-11-30T16:33:42.333Z,37.30
2023-11-30T16:36:09.564Z,32.67
2023-11-30T16:38:36.296Z,34.43
2023-11-30T16:41:03.019Z,42.03
2023-11-30T16:43:29.502Z,42.67
2023-11-30T16:45:56.104Z,60.47
2023-11-30T16:48:22.731Z,42.23
2023-11-30T16:50:49.248Z,50.47
2023-11-30T16:53:15.781Z,41.27
2023-11-30T16:55:43.199Z,44.33
2023-11-30T16:58:09.710Z,45.80
2023-11-30T17:00:36.471Z,42.23
2023-11-30T17:03:04.435Z,37.43
2023-11-30T17:05:31.513Z,39.63
2023-11-30T17:07:58.055Z,40.27
2023-11-30T17:10:24.648Z,62.67
2023-11-30T17:12:51.221Z,45.27
2023-11-30T17:15:18.783Z,43.00
2023-11-30T17:17:47.229Z,44.03
2023-11-30T17:20:13.904Z,38.33
2023-11-30T17:22:41.018Z,39.20
2023-11-30T17:25:08.034Z,41.73
2023-11-30T17:27:34.788Z,40.37
2023-11-30T17:30:01.357Z,42.53
2023-11-30T17:32:28.615Z,53.37
2023-11-30T17:34:55.333Z,59.50
2023-11-30T17:37:21.986Z,63.50
2023-11-30T17:39:48.513Z,48.83
2023-11-30T17:42:16.241Z,39.80
2023-11-30T17:44:43.278Z,41.50
2023-11-30T17:47:10.551Z,46.97
2023-11-30T17:49:37.823Z,55.63
2023-11-30T17:52:04.634Z,69.77
2023-11-30T17:54:31.196Z,65.53
2023-11-30T17:56:59.536Z,58.20
2023-11-30T17:59:26.165Z,57.87
2023-11-30T18:01:52.971Z,63.63
2023-11-30T18:04:19.524Z,63.27
2023-11-30T18:06:46.136Z,59.77
2023-11-30T18:09:12.806Z,59.30
2023-11-30T18:11:39.424Z,57.27
2023-11-30T18:14:05.930Z,57.20
2023-11-30T18:16:34.162Z,59.83
2023-11-30T18:19:00.780Z,58.80
2023-11-30T18:21:30.151Z,60.23
2023-11-30T18:23:56.821Z,59.17
2023-11-30T18:26:24.382Z,59.93
2023-11-30T18:28:50.951Z,52.27
2023-11-30T18:31:22.353Z,54.60
2023-11-30T18:33:50.044Z,52.00
2023-11-30T18:36:16.573Z,53.07
2023-11-30T18:38:50.183Z,53.00
2023-11-30T18:41:18.330Z,53.17
2023-11-30T18:43:44.880Z,51.80
2023-11-30T18:46:11.463Z,54.70
2023-11-30T18:48:38.105Z,53.10
2023-11-30T18:51:06.819Z,49.17
2023-11-30T18:53:33.656Z,50.40
2023-11-30T18:56:02.074Z,45.13
2023-11-30T18:58:28.930Z,45.33
2023-11-30T19:00:58.413Z,46.80
2023-11-30T19:03:25.256Z,47.97
2023-11-30T19:05:52.022Z,49.50
2023-11-30T19:08:18.535Z,46.23
2023-11-30T19:10:45.097Z,45.27
2023-11-30T19:13:11.905Z,46.33
2023-11-30T19:15:42.419Z,46.77
2023-11-30T19:18:09.577Z,49.70
2023-11-30T19:20:38.016Z,49.50
2023-11-30T19:23:04.675Z,60.63
2023-11-30T19:25:31.238Z,59.80
2023-11-30T19:27:58.106Z,60.23
2023-11-30T19:30:24.765Z,64.50
2023-11-30T19:32:52.283Z,70.23
2023-11-30T19:35:19.910Z,72.57
2023-11-30T19:37:46.609Z,55.90
2023-11-30T19:40:13.329Z,54.30
2023-11-30T19:42:40.032Z,53.50
2023-11-30T19:45:07.058Z,55.30
2023-11-30T19:47:33.686Z,54.67
2023-11-30T19:50:01.253Z,52.33
2023-11-30T19:52:27.924Z,54.17
2023-11-30T19:54:54.549Z,51.23
2023-11-30T19:57:21.309Z,49.03
2023-11-30T19:59:47.950Z,51.70
2023-11-30T20:02:14.945Z,54.33
2023-11-30T20:04:41.493Z,50.57
2023-11-30T20:07:08.106Z,53.53
2023-11-30T20:09:34.819Z,53.07
2023-11-30T20:12:01.376Z,51.60
2023-11-30T20:14:28.399Z,51.97
2023-11-30T20:16:57.204Z,51.77
2023-11-30T20:19:24.125Z,52.20
2023-11-30T20:21:52.008Z,49.00
2023-11-30T20:24:18.659Z,48.13
2023-11-30T20:26:46.975Z,45.50
2023-11-30T20:29:14.455Z,49.90
2023-11-30T20:31:41.059Z,46.73
2023-11-30T20:34:07.688Z,46.80
2023-11-30T20:36:34.419Z,52.73
2023-11-30T20:39:00.947Z,53.50
2023-11-30T20:41:27.551Z,54.40
2023-11-30T20:43:54.789Z,54.57
2023-11-30T20:46:21.822Z,49.53
2023-11-30T20:48:48.581Z,53.33
2023-11-30T20:51:18.744Z,51.87
2023-11-30T20:53:45.804Z,51.87
2023-11-30T20:56:12.383Z,52.33
2023-11-30T20:58:39.913Z,53.43
2023-11-30T21:01:06.807Z,56.50
2023-11-30T21:03:33.744Z,58.00
2023-11-30T21:06:02.245Z,57.90
2023-11-30T21:08:29.776Z,61.70
2023-11-30T21:10:56.372Z,64.30
2023-11-30T21:13:23.025Z,61.10
2023-11-30T21:15:49.721Z,64.03
2023-11-30T21:18:16.378Z,60.57
2023-11-30T21:20:43.107Z,52.43
2023-11-30T21:23:09.789Z,60.60
2023-11-30T21:25:36.415Z,63.60
2023-11-30T21:28:03.029Z,67.10
2023-11-30T21:30:29.883Z,66.00
2023-11-30T21:32:56.693Z,73.27
2023-11-30T21:35:23.293Z,74.83
2023-11-30T21:37:49.878Z,80.43
2023-11-30T21:40:16.577Z,89.23
2023-11-30T21:42:43.413Z,91.43
2023-11-30T21:45:10.298Z,84.27
2023-11-30T21:47:37.048Z,89.23
2023-11-30T21:50:21.745Z,93.23
2023-11-30T21:52:49.942Z,92.83
2023-11-30T21:55:16.764Z,94.43
2023-11-30T21:57:43.561Z,87.37
2023-11-30T22:00:13.706Z,92.67
2023-11-30T22:02:41.038Z,94.77
2023-11-30T22:05:08.271Z,90.77
2023-11-30T22:07:34.931Z,96.10
2023-11-30T22:10:02.193Z,96.60
2023-11-30T22:12:28.910Z,99.47
2023-11-30T22:14:55.533Z,94.43
2023-11-30T22:17:22.221Z,96.00
2023-11-30T22:19:48.883Z,96.97
2023-11-30T22:22:15.816Z,89.97
2023-11-30T22:24:42.463Z,95.73
2023-11-30T22:27:09.249Z,93.10
2023-11-30T22:29:35.954Z,89.53
2023-11-30T22:32:02.533Z,88.23
2023-11-30T22:34:29.163Z,89.97
2023-11-30T22:36:55.962Z,90.87
2023-11-30T22:39:22.870Z,97.30
2023-11-30T22:41:50.947Z,92.00
2023-11-30T22:44:17.828Z,92.60
2023-11-30T22:46:44.734Z,90.77
2023-11-30T22:49:11.490Z,95.70
2023-11-30T22:51:42.111Z,97.03
2023-11-30T22:54:08.800Z,95.03
2023-11-30T22:56:35.553Z,95.17
2023-11-30T22:59:02.289Z,94.47
2023-11-30T23:01:29.132Z,97.20
2023-11-30T23:03:56.145Z,94.33
2023-11-30T23:06:22.908Z,96.07
2023-11-30T23:08:49.757Z,104.90
2023-11-30T23:11:16.596Z,103.53
2023-11-30T23:13:43.292Z,108.17
2023-11-30T23:16:10.374Z,100.33
2023-11-30T23:18:37.118Z,102.93
2023-11-30T23:21:03.933Z,100.13
2023-11-30T23:23:30.512Z,106.57
2023-11-30T23:25:57.169Z,104.93
2023-11-30T23:28:23.769Z,96.57
2023-11-30T23:30:50.449Z,86.87
2023-11-30T23:33:17.162Z,85.73
2023-11-30T23:35:44.073Z,96.37
2023-11-30T23:38:10.685Z,107.87
2023-11-30T23:40:37.365Z,107.13
2023-11-30T23:43:04.232Z,102.20
2023-11-30T23:45:30.842Z,99.73
2023-11-30T23:47:57.547Z,97.23
2023-11-30T23:50:24.256Z,92.60
2023-11-30T23:52:50.883Z,86.90
2023-11-30T23:55:17.553Z,83.13
2023-11-30T23:57:44.221Z,81.53
